Time;durP1;ratioP1;P1;durP2;ratioP2;P2;SDS_P1;SDS_P2;PMS_P1;PMS_P2;Temp;Humidity;BMP_temperature;BMP_pressure;BME280_temperature;BME280_humidity;BME280_pressure;Samples;Min_cycle;Max_cycle;Signal;HPM_P1;HPM_P2
2022/08/11 00:01:32;;;;;;;;;;;;;;;23.06;37.14;100888.37;5396163;32;45071;-69
2022/08/11 00:04:34;;;;;;;;;;;;;;;22.87;37.48;100879.19;5402545;32;35361;-79
2022/08/11 00:07:41;;;;;;;;;;;;;;;22.74;37.98;100877.63;5402037;32;36129;-70
2022/08/11 00:10:43;;;;;;;;;;;;;;;22.33;38.96;100873.78;5370877;32;35309;-70
2022/08/11 00:13:45;;;;;;;;;;;;;;;22.69;38.34;100872.62;5394005;32;35462;-79
2022/08/11 00:16:58;;;;;;;;;;;;;;;23.24;36.96;100871.56;5382947;32;34377;-70
2022/08/11 00:20:04;;;;;;;;;;;;;;;23.17;37.89;100865.03;5381115;32;44723;-78
2022/08/11 00:23:15;;;;;;;;;;;;;;;22.81;38.19;100874.31;5406354;32;35271;-69
2022/08/11 00:26:20;;;;;;;;;;;;;;;23.30;37.42;100850.59;5393499;32;34668;-79
2022/08/11 00:29:21;;;;;;;;;;;;;;;22.56;39.08;100867.44;5401172;32;34087;-78
2022/08/11 00:32:23;;;;;;;;;;;;;;;22.47;39.12;100861.97;5412442;32;34253;-79
2022/08/11 00:35:26;;;;;;;;;;;;;;;22.34;40.04;100859.41;5378923;32;35088;-69
2022/08/11 00:38:49;;;;;;;;;;;;;;;22.39;39.48;100863.44;5405900;32;35000;-77
2022/08/11 00:42:01;;;;;;;;;;;;;;;22.51;39.28;100866.09;5379666;32;34960;-79
2022/08/11 00:45:12;;;;;;;;;;;;;;;22.51;39.62;100868.78;5376190;32;44798;-68
2022/08/11 00:48:14;;;;;;;;;;;;;;;22.44;39.75;100863.06;5400415;32;35174;-69
2022/08/11 00:51:23;;;;;;;;;;;;;;;22.62;39.18;100863.41;5392779;32;35232;-75
2022/08/11 00:54:31;;;;;;;;;;;;;;;23.27;37.86;100853.53;5414225;32;34118;-69
2022/08/11 00:57:55;;;;;;;;;;;;;;;23.02;38.32;100862.81;5381866;32;45224;-69
2022/08/11 01:01:03;;;;;;;;;;;;;;;22.88;38.66;100861.28;5383773;32;36448;-80
2022/08/11 01:04:23;;;;;;;;;;;;;;;23.33;37.61;100861.06;5413659;32;34939;-77
2022/08/11 01:07:38;;;;;;;;;;;;;;;22.98;38.22;100867.56;5395055;32;35005;-69
2022/08/11 01:11:02;;;;;;;;;;;;;;;23.13;37.77;100868.97;5398719;32;35399;-78
2022/08/11 01:14:23;;;;;;;;;;;;;;;22.89;38.32;100862.97;5399662;32;34356;-68
2022/08/11 01:17:53;;;;;;;;;;;;;;;23.14;38.03;100857.25;5374840;32;44796;-69
2022/08/11 01:21:02;;;;;;;;;;;;;;;22.93;38.46;100854.56;5410653;32;34873;-69
2022/08/11 01:24:04;;;;;;;;;;;;;;;22.50;39.38;100857.22;5400587;32;44668;-77
2022/08/11 01:27:09;;;;;;;;;;;;;;;22.63;39.53;100860.59;5408811;32;35045;-78
2022/08/11 01:30:39;;;;;;;;;;;;;;;23.20;38.38;100850.53;5384985;32;33986;-79
2022/08/11 01:33:41;;;;;;;;;;;;;;;23.09;38.65;100850.59;5400693;32;34617;-75
2022/08/11 01:36:43;;;;;;;;;;;;;;;22.67;39.65;100855.84;5416241;32;34958;-71
2022/08/11 01:39:51;;;;;;;;;;;;;;;22.60;39.87;100851.94;5396787;32;34380;-68
2022/08/11 01:46:25;;;;;;;;;;;;;;;22.47;40.22;100848.56;5399552;32;35184;-69
2022/08/11 01:49:43;;;;;;;;;;;;;;;23.15;38.79;100842.88;5396565;32;35887;-77
2022/08/11 01:53:10;;;;;;;;;;;;;;;22.92;39.12;100842.12;5414464;32;45666;-80
2022/08/11 01:56:32;;;;;;;;;;;;;;;22.67;39.69;100837.09;5391072;32;34581;-69
2022/08/11 01:59:35;;;;;;;;;;;;;;;21.61;42.12;100837.50;5396564;32;46966;-68
2022/08/11 02:02:46;;;;;;;;;;;;;;;22.27;40.38;100837.66;5398512;32;34451;-79
2022/08/11 02:06:53;;;;;;;;;;;;;;;22.25;40.47;100841.44;5399662;32;35330;-78
2022/08/11 02:09:43;;;;;;;;;;;;;;;22.41;39.99;100832.03;5386562;32;34999;-69
2022/08/11 02:12:54;;;;;;;;;;;;;;;22.86;39.06;100828.34;5411918;32;34592;-75
2022/08/11 02:16:16;;;;;;;;;;;;;;;22.87;38.84;100833.63;5349913;32;34272;-75
2022/08/11 02:23:52;;;;;;;;;;;;;;;23.06;38.64;100832.94;5350481;32;35579;-78
2022/08/11 02:27:08;;;;;;;;;;;;;;;22.92;39.05;100838.59;5349380;32;35616;-77
2022/08/11 02:30:11;;;;;;;;;;;;;;;22.81;39.33;100827.91;5361420;32;34305;-69
2022/08/11 02:33:23;;;;;;;;;;;;;;;22.93;39.31;100819.72;5346942;32;34660;-70
2022/08/11 02:36:35;;;;;;;;;;;;;;;22.17;41.09;100829.53;5353341;32;34455;-79
2022/08/11 02:39:39;;;;;;;;;;;;;;;22.11;41.09;100826.50;5361369;32;44563;-69
2022/08/11 02:42:44;;;;;;;;;;;;;;;21.92;41.47;100828.91;5346681;32;35396;-69
2022/08/11 02:45:46;;;;;;;;;;;;;;;22.37;40.63;100822.56;5379813;32;34271;-75
2022/08/11 02:52:27;;;;;;;;;;;;;;;22.46;40.45;100815.56;5405204;32;34466;-69
2022/08/11 02:55:38;;;;;;;;;;;;;;;22.26;40.93;100805.66;5395409;32;45688;-68
2022/08/11 03:02:31;;;;;;;;;;;;;;;21.62;42.43;100814.28;5400955;32;34086;-69
2022/08/11 03:05:36;;;;;;;;;;;;;;;22.28;41.42;100814.41;5389036;32;45376;-78
2022/08/11 03:08:57;;;;;;;;;;;;;;;21.73;42.04;100795.56;5394111;32;35233;-69
2022/08/11 03:19:10;;;;;;;;;;;;;;;22.56;40.58;100819.22;5387990;32;44334;-77
2022/08/11 03:22:16;;;;;;;;;;;;;;;21.63;42.74;100830.22;5400424;32;34768;-75
2022/08/11 03:25:30;;;;;;;;;;;;;;;21.59;42.84;100822.56;5379280;32;34274;-79
2022/08/11 03:28:37;;;;;;;;;;;;;;;21.84;42.29;100824.16;5403954;32;44699;-68
2022/08/11 03:31:47;;;;;;;;;;;;;;;21.99;42.13;100819.41;5382251;32;35039;-75
2022/08/11 03:34:48;;;;;;;;;;;;;;;21.85;42.29;100824.03;5374028;32;34788;-75
2022/08/11 03:37:54;;;;;;;;;;;;;;;21.72;42.48;100809.94;5399226;32;34852;-68
2022/08/11 03:45:04;;;;;;;;;;;;;;;21.67;43.08;100825.50;5402467;32;34644;-70
2022/08/11 03:48:13;;;;;;;;;;;;;;;21.99;42.51;100824.75;5391701;32;45194;-68
2022/08/11 03:51:26;;;;;;;;;;;;;;;21.96;42.65;100825.88;5388108;32;34935;-71
2022/08/11 03:54:58;;;;;;;;;;;;;;;21.78;43.14;100819.31;5405784;32;35582;-78
2022/08/11 03:58:08;;;;;;;;;;;;;;;21.76;43.30;100830.09;5402850;32;44701;-70
2022/08/11 04:01:31;;;;;;;;;;;;;;;22.24;42.10;100819.16;5407751;32;35703;-70
2022/08/11 04:04:34;;;;;;;;;;;;;;;21.76;43.20;100821.22;5417062;32;43702;-77
2022/08/11 04:07:39;;;;;;;;;;;;;;;22.13;42.38;100828.06;5401636;32;35348;-69
2022/08/11 04:10:59;;;;;;;;;;;;;;;22.10;42.29;100832.81;5409341;32;33425;-74
2022/08/11 04:18:01;;;;;;;;;;;;;;;22.43;41.78;100834.59;5379161;32;35612;-79
2022/08/11 04:21:21;;;;;;;;;;;;;;;21.79;43.11;100835.22;5415979;32;45039;-71
2022/08/11 04:24:53;;;;;;;;;;;;;;;21.95;42.79;100832.16;5387268;32;35278;-76
2022/08/11 04:28:14;;;;;;;;;;;;;;;21.86;43.08;100835.59;5392129;32;34002;-70
2022/08/11 04:31:37;;;;;;;;;;;;;;;22.08;42.49;100837.41;5417129;32;35060;-70
2022/08/11 04:35:07;;;;;;;;;;;;;;;22.04;42.34;100828.78;5378369;32;34131;-76
2022/08/11 04:38:24;;;;;;;;;;;;;;;22.33;41.60;100839.81;5398135;32;36734;-80
2022/08/11 04:45:19;;;;;;;;;;;;;;;22.49;41.27;100836.78;5388868;32;34605;-77
2022/08/11 05:02:29;;;;;;;;;;;;;;;23.87;38.07;100850.09;5409178;32;35220;-79
2022/08/11 05:05:43;;;;;;;;;;;;;;;23.01;39.70;100850.37;5400388;32;46319;-68
2022/08/11 05:09:13;;;;;;;;;;;;;;;23.86;38.17;100847.56;5388118;32;34331;-70
2022/08/11 05:12:19;;;;;;;;;;;;;;;24.52;36.64;100850.63;5391278;32;34345;-81
2022/08/11 05:36:42;;;;;;;;;;;;;;;23.50;37.88;100857.78;5413249;32;34177;-68
2022/08/11 05:56:56;;;;;;;;;;;;;;;25.89;33.71;100853.09;5413638;32;34057;-70
2022/08/11 06:00:00;;;;;;;;;;;;;;;26.74;31.69;100854.66;5373577;32;44353;-77
2022/08/11 06:03:06;;;;;;;;;;;;;;;25.05;34.41;100864.59;5389764;32;36042;-73
2022/08/11 06:06:08;;;;;;;;;;;;;;;26.07;32.72;100856.72;5389507;32;34457;-65
2022/08/11 06:09:13;;;;;;;;;;;;;;;25.77;33.42;100854.28;5400658;32;34259;-72
2022/08/11 06:12:22;;;;;;;;;;;;;;;26.63;31.80;100855.72;5392284;32;35982;-74
2022/08/11 06:15:24;;;;;;;;;;;;;;;27.23;30.27;100849.72;5361541;32;34905;-65
2022/08/11 06:18:26;;;;;;;;;;;;;;;28.36;28.81;100854.13;5400205;32;33957;-71
2022/08/11 06:21:31;;;;;;;;;;;;;;;29.43;27.11;100850.53;5385278;32;44461;-66
2022/08/11 06:24:33;;;;;;;;;;;;;;;29.79;26.61;100844.75;5381570;32;34294;-68
2022/08/11 06:27:36;;;;;;;;;;;;;;;30.77;24.89;100839.72;5400336;32;34317;-72
2022/08/11 06:30:39;;;;;;;;;;;;;;;28.23;28.25;100838.34;5401136;32;35620;-67
2022/08/11 06:33:44;;;;;;;;;;;;;;;26.93;30.44;100848.28;5400439;32;33725;-68
2022/08/11 06:36:50;;;;;;;;;;;;;;;26.81;30.96;100839.56;5401832;32;34224;-69
2022/08/11 06:39:55;;;;;;;;;;;;;;;29.09;27.48;100851.56;5394315;32;35270;-66
2022/08/11 06:43:01;;;;;;;;;;;;;;;28.87;27.53;100844.09;5408388;32;35179;-72
2022/08/11 06:46:05;;;;;;;;;;;;;;;29.13;26.99;100850.22;5387993;32;34073;-70
2022/08/11 06:51:10;;;;;;;;;;;;;;;29.84;26.23;100834.25;5400632;32;34187;-72
2022/08/11 06:52:31;;;;;;;;;;;;;;;28.38;28.08;100846.69;5385590;32;44476;-75
2022/08/11 07:02:27;;;;;;;;;;;;;;;29.08;27.00;100844.47;5400615;32;34855;-74
2022/08/11 07:05:42;;;;;;;;;;;;;;;29.80;25.77;100832.88;5410745;32;43910;-71
2022/08/11 07:15:42;;;;;;;;;;;;;;;32.05;22.59;100820.69;5389395;32;33701;-73
2022/08/11 07:29:12;;;;;;;;;;;;;;;33.17;21.22;100825.69;5383934;32;34199;-69
2022/08/11 07:32:16;;;;;;;;;;;;;;;32.49;21.77;100823.34;5414629;32;34317;-69
2022/08/11 07:35:23;;;;;;;;;;;;;;;33.17;20.57;100832.00;5402784;32;35502;-71
2022/08/11 07:38:42;;;;;;;;;;;;;;;32.00;22.24;100828.56;5408091;32;34828;-78
2022/08/11 07:41:46;;;;;;;;;;;;;;;32.72;21.33;100823.19;5417809;32;33048;-71
2022/08/11 07:54:51;;;;;;;;;;;;;;;31.84;22.40;100821.47;5402234;32;34414;-73
2022/08/11 08:18:05;;;;;;;;;;;;;;;30.86;22.73;100810.69;5379236;32;44950;-76
2022/08/11 08:21:27;;;;;;;;;;;;;;;34.09;19.40;100787.34;5396732;32;34491;-74
2022/08/11 08:24:31;;;;;;;;;;;;;;;33.34;20.07;100791.69;5397995;32;45007;-70
2022/08/11 08:27:34;;;;;;;;;;;;;;;31.76;21.62;100792.50;5379662;32;36515;-71
2022/08/11 08:30:50;;;;;;;;;;;;;;;31.88;21.60;100798.34;5419828;32;34593;-73
2022/08/11 08:33:52;;;;;;;;;;;;;;;30.90;23.06;100793.00;5390535;32;34767;-72
2022/08/11 08:36:54;;;;;;;;;;;;;;;31.73;21.70;100784.69;5385968;32;34311;-76
2022/08/11 08:39:57;;;;;;;;;;;;;;;29.94;24.13;100791.50;5395145;32;36452;-74
2022/08/11 08:43:03;;;;;;;;;;;;;;;29.31;25.58;100789.66;5390051;32;44472;-68
2022/08/11 08:46:08;;;;;;;;;;;;;;;30.25;24.54;100777.16;5400468;32;34339;-67
2022/08/11 08:49:15;;;;;;;;;;;;;;;29.30;25.83;100775.25;5377938;32;36755;-71
2022/08/11 08:52:21;;;;;;;;;;;;;;;31.92;22.62;100774.31;5420932;32;34530;-75
2022/08/11 08:55:35;;;;;;;;;;;;;;;32.17;22.05;100767.50;5395168;32;44588;-74
2022/08/11 08:58:38;;;;;;;;;;;;;;;34.01;19.94;100772.00;5394475;32;35395;-78
2022/08/11 09:01:42;;;;;;;;;;;;;;;35.20;18.52;100766.72;5418578;32;35366;-79
2022/08/11 09:04:45;;;;;;;;;;;;;;;32.80;18.48;100763.16;5407888;32;35428;-78
2022/08/11 09:07:50;;;;;;;;;;;;;;;32.29;19.10;100776.03;5416639;32;34193;-79
2022/08/11 09:18:02;;;;;;;;;;;;;;;32.74;18.19;100765.84;5395545;32;34232;-70
2022/08/11 09:21:04;;;;;;;;;;;;;;;34.06;16.81;100744.09;5385235;32;44565;-70
2022/08/11 09:27:27;;;;;;;;;;;;;;;33.37;17.50;100737.66;5410024;32;35301;-67
2022/08/11 09:30:31;;;;;;;;;;;;;;;34.69;16.02;100739.19;5381031;32;44571;-72
2022/08/11 09:33:35;;;;;;;;;;;;;;;35.28;15.20;100739.19;5401392;32;35029;-70
2022/08/11 09:46:41;;;;;;;;;;;;;;;33.55;16.97;100722.66;5404030;32;34627;-69
2022/08/11 09:49:47;;;;;;;;;;;;;;;31.63;18.54;100721.69;5410188;32;36275;-68
2022/08/11 09:52:50;;;;;;;;;;;;;;;32.07;17.96;100728.91;5399996;32;33957;-79
2022/08/11 09:59:35;;;;;;;;;;;;;;;30.73;21.03;100727.19;5406256;32;44692;-69
2022/08/11 10:02:44;;;;;;;;;;;;;;;29.75;22.63;100726.91;5405849;32;35398;-80
2022/08/11 10:09:08;;;;;;;;;;;;;;;29.84;22.86;100724.00;5392383;32;34390;-66
2022/08/11 10:12:12;;;;;;;;;;;;;;;33.25;18.74;100709.28;5414364;32;35939;-74
2022/08/11 10:15:33;;;;;;;;;;;;;;;31.13;20.87;100716.97;5408406;32;34242;-66
2022/08/11 10:18:50;;;;;;;;;;;;;;;32.20;19.74;100710.03;5380085;32;44370;-76
2022/08/11 10:28:34;;;;;;;;;;;;;;;31.57;20.10;100702.56;5402326;32;44384;-70
2022/08/11 10:35:19;;;;;;;;;;;;;;;33.38;17.52;100684.84;5394968;32;34447;-71
2022/08/11 10:38:21;;;;;;;;;;;;;;;33.39;18.08;100683.00;5415291;32;35745;-71
2022/08/11 10:47:33;;;;;;;;;;;;;;;30.35;21.02;100697.28;5405602;32;35397;-71
2022/08/11 10:48:27;;;;;;;;;;;;;;;30.45;20.05;100688.88;5417034;32;35323;-64
2022/08/11 11:01:42;;;;;;;;;;;;;;;30.23;21.72;100673.50;5403621;32;46278;-68
2022/08/11 11:04:56;;;;;;;;;;;;;;;32.04;19.94;100674.94;5411809;32;34401;-72
2022/08/11 11:08:51;;;;;;;;;;;;;;;30.35;21.58;100669.34;5402046;32;44929;-71
2022/08/11 11:18:23;;;;;;;;;;;;;;;31.45;19.48;100650.59;5373771;32;32953;-72
2022/08/11 11:21:25;;;;;;;;;;;;;;;35.13;15.85;100632.06;5406679;32;35601;-71
2022/08/11 11:24:38;;;;;;;;;;;;;;;36.19;14.28;100628.78;5411321;32;35568;-68
2022/08/11 11:27:47;;;;;;;;;;;;;;;35.01;15.13;100631.88;5395427;32;34289;-70
2022/08/11 11:30:55;;;;;;;;;;;;;;;33.40;16.72;100635.62;5401283;32;33061;-72
2022/08/11 11:33:58;;;;;;;;;;;;;;;35.70;14.19;100615.88;5387744;32;33712;-70
2022/08/11 11:37:14;;;;;;;;;;;;;;;31.09;17.36;100629.63;5405948;32;34833;-66
2022/08/11 11:40:20;;;;;;;;;;;;;;;31.79;17.49;100633.69;5411269;32;34337;-69
2022/08/11 11:43:31;;;;;;;;;;;;;;;30.81;18.08;100628.59;5386822;32;44673;-73
2022/08/11 11:46:33;;;;;;;;;;;;;;;30.53;19.15;100633.72;5398991;32;34221;-68
2022/08/11 11:49:42;;;;;;;;;;;;;;;30.05;19.40;100620.37;5389074;32;35518;-73
2022/08/11 11:52:45;;;;;;;;;;;;;;;29.87;20.05;100625.25;5396105;32;35378;-73
2022/08/11 11:55:46;;;;;;;;;;;;;;;28.98;20.96;100626.50;5414771;32;34660;-71
2022/08/11 12:02:12;;;;;;;;;;;;;;;29.60;20.50;100616.63;5417786;32;34182;-70
2022/08/11 12:05:14;;;;;;;;;;;;;;;29.31;20.87;100613.72;5388194;32;36561;-70
2022/08/11 12:08:16;;;;;;;;;;;;;;;29.04;20.98;100612.25;5413872;32;34381;-67
2022/08/11 12:14:39;;;;;;;;;;;;;;;31.74;18.32;100603.50;5387159;32;34177;-67
2022/08/11 12:17:41;;;;;;;;;;;;;;;33.11;16.64;100598.62;5394653;32;34017;-72
2022/08/11 12:20:44;;;;;;;;;;;;;;;34.36;15.24;100586.34;5391066;32;35210;-73
2022/08/11 12:27:22;;;;;;;;;;;;;;;32.73;17.20;100582.66;5386473;32;44617;-76
2022/08/11 12:30:26;;;;;;;;;;;;;;;32.29;17.79;100582.94;5366084;32;35437;-76
2022/08/11 12:33:28;;;;;;;;;;;;;;;32.78;17.49;100566.59;5399223;32;44580;-76
2022/08/11 12:36:32;;;;;;;;;;;;;;;31.69;18.45;100566.06;5393053;32;35535;-71
2022/08/11 12:46:43;;;;;;;;;;;;;;;30.67;19.36;100582.28;5390503;32;34483;-75
2022/08/11 12:53:27;;;;;;;;;;;;;;;30.09;20.09;100569.37;5392116;32;35351;-76
2022/08/11 13:06:36;;;;;;;;;;;;;;;30.64;19.01;100560.06;5402893;32;44698;-76
2022/08/11 13:09:38;;;;;;;;;;;;;;;30.74;19.54;100550.66;5380792;32;34466;-67
2022/08/11 13:12:49;;;;;;;;;;;;;;;30.48;19.85;100547.53;5403395;32;35409;-86
2022/08/11 13:15:51;;;;;;;;;;;;;;;29.85;20.54;100548.75;5417150;32;34286;-77
2022/08/11 13:18:54;;;;;;;;;;;;;;;29.61;21.08;100547.88;5384513;32;33699;-86
2022/08/11 13:21:56;;;;;;;;;;;;;;;29.53;20.70;100555.22;5405109;32;35341;-69
2022/08/11 13:24:58;;;;;;;;;;;;;;;28.60;21.89;100548.66;5387063;32;44459;-80
2022/08/11 13:28:01;;;;;;;;;;;;;;;29.77;20.84;100544.25;5412158;32;35463;-77
2022/08/11 13:31:10;;;;;;;;;;;;;;;29.50;21.38;100556.41;5403985;32;33896;-78
2022/08/11 13:34:12;;;;;;;;;;;;;;;29.59;21.76;100544.53;5396729;32;34220;-75
2022/08/11 13:37:17;;;;;;;;;;;;;;;30.37;21.32;100543.38;5417569;32;34225;-88
2022/08/11 13:40:41;;;;;;;;;;;;;;;29.26;22.97;100548.44;5391689;32;34849;-72
2022/08/11 13:43:56;;;;;;;;;;;;;;;29.64;22.65;100535.87;5401487;32;34637;-79
2022/08/11 13:47:01;;;;;;;;;;;;;;;28.51;24.12;100536.16;5405568;32;44491;-80
2022/08/11 13:50:04;;;;;;;;;;;;;;;28.40;24.28;100531.09;5399970;32;35643;-70
2022/08/11 13:53:06;;;;;;;;;;;;;;;28.61;24.18;100530.56;5397671;32;34438;-77
2022/08/11 13:56:08;;;;;;;;;;;;;;;28.86;23.83;100529.47;5371251;32;35419;-70
2022/08/11 13:59:10;;;;;;;;;;;;;;;29.75;22.68;100523.75;5392578;32;34192;-76
2022/08/11 14:02:15;;;;;;;;;;;;;;;28.61;23.93;100519.75;5366964;32;34235;-75
2022/08/11 14:05:32;;;;;;;;;;;;;;;29.47;23.07;100518.84;5384018;32;44545;-73
2022/08/11 14:08:34;;;;;;;;;;;;;;;29.01;23.77;100521.47;5391761;32;36342;-71
2022/08/11 14:15:26;;;;;;;;;;;;;;;29.55;23.30;100513.41;5395653;32;35047;-74
2022/08/11 14:18:29;;;;;;;;;;;;;;;29.69;22.66;100514.50;5372635;32;43426;-74
2022/08/11 14:24:55;;;;;;;;;;;;;;;29.75;22.26;100507.50;5402862;32;34841;-77
2022/08/11 14:27:58;;;;;;;;;;;;;;;29.49;22.35;100502.41;5382616;32;43139;-73
2022/08/11 14:31:20;;;;;;;;;;;;;;;30.18;21.84;100505.97;5402318;32;34974;-72
2022/08/11 14:34:23;;;;;;;;;;;;;;;30.31;21.64;100511.59;5402855;32;36682;-76
2022/08/11 14:37:25;;;;;;;;;;;;;;;30.16;21.38;100506.16;5385194;32;36147;-76
2022/08/11 14:47:16;;;;;;;;;;;;;;;28.57;23.38;100500.31;5418816;32;37793;-72
2022/08/11 14:50:26;;;;;;;;;;;;;;;28.52;23.68;100500.00;5392687;32;35111;-71
2022/08/11 14:53:28;;;;;;;;;;;;;;;30.36;21.65;100492.91;5386672;32;44271;-72
2022/08/11 14:56:35;;;;;;;;;;;;;;;29.01;23.12;100497.13;5419412;32;34521;-77
2022/08/11 14:59:38;;;;;;;;;;;;;;;29.75;21.83;100489.38;5408437;32;36316;-78
2022/08/11 15:06:01;;;;;;;;;;;;;;;29.48;21.92;100492.62;5403834;32;47037;-79
2022/08/11 15:09:03;;;;;;;;;;;;;;;28.35;23.11;100494.81;5371072;32;34806;-73
2022/08/11 15:12:15;;;;;;;;;;;;;;;28.47;23.00;100496.97;5404215;32;34827;-71
2022/08/11 15:18:54;;;;;;;;;;;;;;;27.94;23.80;100502.94;5396012;32;34440;-72
2022/08/11 15:25:18;;;;;;;;;;;;;;;28.35;23.43;100495.66;5391637;32;34511;-78
2022/08/11 15:38:15;;;;;;;;;;;;;;;28.10;23.83;100491.28;5393864;32;34228;-77
2022/08/11 15:48:08;;;;;;;;;;;;;;;28.43;23.31;100479.41;5391466;32;44469;-72
2022/08/11 15:51:13;;;;;;;;;;;;;;;28.54;23.45;100489.88;5398208;32;35828;-75
2022/08/11 15:54:19;;;;;;;;;;;;;;;27.85;24.49;100482.34;5397443;32;35375;-72
2022/08/11 16:04:13;;;;;;;;;;;;;;;28.10;24.63;100492.13;5389327;32;35578;-76
2022/08/11 16:07:24;;;;;;;;;;;;;;;27.89;25.23;100487.25;5393108;32;35106;-77
2022/08/11 16:10:27;;;;;;;;;;;;;;;27.95;25.20;100489.28;5412608;32;38359;-74
2022/08/11 16:16:38;;;;;;;;;;;;;;;27.77;25.52;100485.91;5384620;32;35068;-76
2022/08/11 16:19:40;;;;;;;;;;;;;;;27.59;25.92;100479.78;5385708;32;35665;-72
2022/08/11 16:22:42;;;;;;;;;;;;;;;27.23;26.47;100480.06;5401518;32;35180;-73
2022/08/11 16:26:04;;;;;;;;;;;;;;;27.95;25.78;100478.47;5409688;32;45162;-76
2022/08/11 16:29:26;;;;;;;;;;;;;;;27.22;26.67;100481.91;5400838;32;34623;-72
2022/08/11 16:32:28;;;;;;;;;;;;;;;27.05;27.04;100487.41;5403062;32;45472;-74
2022/08/11 16:38:55;;;;;;;;;;;;;;;27.37;26.40;100465.06;5407089;32;36001;-71
2022/08/11 16:49:01;;;;;;;;;;;;;;;27.30;26.02;100473.00;5403120;32;45386;-72
2022/08/11 16:52:06;;;;;;;;;;;;;;;27.54;25.87;100470.31;5403099;32;34353;-73
2022/08/11 16:55:08;;;;;;;;;;;;;;;27.92;25.32;100472.56;5402650;32;35221;-72
2022/08/11 17:01:32;;;;;;;;;;;;;;;27.62;25.90;100482.97;5400705;32;43074;-75
2022/08/11 17:14:51;;;;;;;;;;;;;;;27.38;27.06;100481.13;5419200;32;34296;-76
2022/08/11 17:17:53;;;;;;;;;;;;;;;26.63;28.39;100517.91;5363588;32;36534;-76
2022/08/11 17:20:55;;;;;;;;;;;;;;;25.70;30.31;100504.06;5401114;32;34758;-76
2022/08/11 17:24:02;;;;;;;;;;;;;;;25.38;31.16;100510.84;5388898;32;34617;-72
2022/08/11 17:27:09;;;;;;;;;;;;;;;24.75;32.54;100518.78;5399289;32;34896;-77
2022/08/11 17:30:13;;;;;;;;;;;;;;;24.81;32.72;100511.97;5404276;32;35401;-77
2022/08/11 17:36:36;;;;;;;;;;;;;;;24.57;33.37;100534.84;5402999;32;46863;-72
2022/08/11 17:39:43;;;;;;;;;;;;;;;24.16;33.98;100537.91;5389252;32;34715;-74
2022/08/11 17:49:10;;;;;;;;;;;;;;;24.37;34.00;100552.00;5386173;32;34839;-76
2022/08/11 18:05:42;;;;;;;;;;;;;;;24.62;33.82;100565.81;5400543;32;34775;-76
